Time;durP1;ratioP1;P1;durP2;ratioP2;P2;SDS_P1;SDS_P2;PMS_P1;PMS_P2;Temp;Humidity;BMP_temperature;BMP_pressure;BME280_temperature;BME280_humidity;BME280_pressure;Samples;Min_cycle;Max_cycle;Signal;HPM_P1;HPM_P2
2023/02/13 00:01:49;;;;;;;46.33;36.48;;;26.60;85.30;;;;;;1894402;75;21089;-87
2023/02/13 00:04:20;;;;;;;47.90;35.13;;;26.50;85.10;;;;;;1893434;75;21132;-86
2023/02/13 00:06:50;;;;;;;43.80;34.65;;;26.50;85.10;;;;;;1902030;75;21140;-86
2023/02/13 00:09:21;;;;;;;50.20;36.10;;;26.50;85.30;;;;;;1900932;75;21152;-86
2023/02/13 00:11:52;;;;;;;54.35;37.25;;;26.50;85.40;;;;;;1897660;75;21190;-87
2023/02/13 00:14:22;;;;;;;48.52;35.73;;;26.60;85.50;;;;;;1870321;75;21144;-87
2023/02/13 00:16:53;;;;;;;53.45;36.20;;;26.60;85.40;;;;;;1888854;75;21136;-85
2023/02/13 00:19:24;;;;;;;64.92;37.05;;;26.60;85.50;;;;;;1872263;75;21167;-86
2023/02/13 00:21:54;;;;;;;45.43;35.80;;;26.60;85.50;;;;;;1873689;75;21265;-86
2023/02/13 00:24:25;;;;;;;51.28;38.42;;;26.70;85.60;;;;;;1901965;75;21144;-86
2023/02/13 00:26:56;;;;;;;48.95;35.88;;;26.70;85.30;;;;;;1900595;75;21403;-86
2023/02/13 00:29:26;;;;;;;46.88;36.40;;;26.80;85.10;;;;;;1899125;74;21132;-85
2023/02/13 00:31:57;;;;;;;49.53;37.93;;;26.80;85.00;;;;;;1897336;75;21175;-87
2023/02/13 00:34:28;;;;;;;56.90;38.90;;;26.90;84.90;;;;;;1890153;75;21097;-87
2023/02/13 00:36:59;;;;;;;53.78;39.05;;;26.90;84.50;;;;;;1878408;75;21164;-86
2023/02/13 00:39:29;;;;;;;53.55;38.78;;;26.90;84.20;;;;;;1882466;75;21144;-85
2023/02/13 00:42:00;;;;;;;54.05;40.10;;;27.00;84.30;;;;;;1883104;75;21209;-86
2023/02/13 00:44:31;;;;;;;47.83;39.20;;;27.00;83.90;;;;;;1899453;75;21121;-86
2023/02/13 00:47:01;;;;;;;48.28;39.73;;;27.00;83.70;;;;;;1900612;74;21121;-86
2023/02/13 00:49:39;;;;;;;50.38;40.03;;;27.00;83.70;;;;;;1882528;75;21179;-84
2023/02/13 00:52:25;;;;;;;54.00;38.85;;;27.00;83.80;;;;;;1873924;75;21167;-77
2023/02/13 00:54:57;;;;;;;47.25;36.50;;;27.10;83.60;;;;;;1875913;75;21623;-79
2023/02/13 01:03:39;;;;;;;54.77;37.03;;;27.10;81.60;;;;;;1873493;77;21061;-76
2023/02/13 01:06:26;;;;;;;49.20;38.35;;;27.20;81.70;;;;;;1882199;75;21679;-73
2023/02/13 01:11:51;;;;;;;53.05;40.28;;;27.20;81.70;;;;;;1822604;75;21119;-79
2023/02/13 01:14:45;;;;;;;56.20;41.35;;;27.20;82.00;;;;;;1860721;75;21606;-81
2023/02/13 01:17:56;;;;;;;54.40;39.50;;;27.30;82.40;;;;;;1805993;77;21192;-79
2023/02/13 01:20:39;;;;;;;49.83;37.67;;;27.30;82.10;;;;;;1804843;75;21237;-78
2023/02/13 01:23:06;;;;;;;50.98;38.55;;;27.30;81.20;;;;;;1869474;76;21225;-76
2023/02/13 01:25:42;;;;;;;51.30;37.95;;;27.30;81.70;;;;;;1874390;75;21104;-77
2023/02/13 01:28:13;;;;;;;50.33;38.15;;;27.30;81.70;;;;;;1885185;75;21186;-79
2023/02/13 01:30:44;;;;;;;59.88;39.75;;;27.40;82.00;;;;;;1825395;78;21131;-79
2023/02/13 01:33:17;;;;;;;46.37;37.85;;;27.40;80.80;;;;;;1868890;77;21584;-78
2023/02/13 01:35:52;;;;;;;48.78;37.53;;;27.40;80.90;;;;;;1867210;77;21121;-79
2023/02/13 01:38:23;;;;;;;47.23;38.28;;;27.40;80.30;;;;;;1839033;78;21120;-81
2023/02/13 01:40:55;;;;;;;50.48;38.88;;;27.40;79.60;;;;;;1845373;77;21612;-77
2023/02/13 01:43:29;;;;;;;45.90;36.70;;;27.40;79.70;;;;;;1865180;77;21140;-78
2023/02/13 01:46:01;;;;;;;48.75;38.00;;;27.50;79.90;;;;;;1859872;76;21387;-79
2023/02/13 01:48:32;;;;;;;46.58;37.83;;;27.50;79.70;;;;;;1869683;76;21100;-80
2023/02/13 01:51:06;;;;;;;50.08;38.65;;;27.60;79.70;;;;;;1865065;76;21603;-75
2023/02/13 01:54:04;;;;;;;44.00;37.53;;;27.60;79.10;;;;;;1869643;76;21111;-79
2023/02/13 01:59:46;;;;;;;50.08;40.23;;;27.70;79.40;;;;;;1681324;83;21181;-76
2023/02/13 02:02:14;;;;;;;48.68;37.93;;;27.70;79.50;;;;;;1689481;78;21261;-76
2023/02/13 02:04:48;;;;;;;54.50;39.80;;;27.70;79.70;;;;;;1837697;76;21236;-77
2023/02/13 02:07:26;;;;;;;49.88;39.00;;;27.70;79.40;;;;;;1846406;76;21190;-80
2023/02/13 02:09:56;;;;;;;51.60;39.15;;;27.70;79.40;;;;;;1811799;77;21210;-84
2023/02/13 02:12:44;;;;;;;52.00;39.13;;;27.80;78.90;;;;;;1846577;76;21134;-78
2023/02/13 02:15:18;;;;;;;48.20;39.40;;;27.80;78.60;;;;;;1832458;76;21964;-84
2023/02/13 02:17:49;;;;;;;48.13;37.80;;;27.80;78.60;;;;;;1857322;76;21099;-81
2023/02/13 02:20:51;;;;;;;;;;;;;;;;;;;;;
2023/02/13 02:26:52;;;;;;;55.33;37.93;;;28.00;78.00;;;;;;1836468;76;21232;-76
2023/02/13 02:29:34;;;;;;;55.83;38.23;;;28.10;78.20;;;;;;1844746;76;21130;-78
2023/02/13 02:32:13;;;;;;;49.20;38.83;;;28.20;78.60;;;;;;1844912;76;21122;-81
2023/02/13 02:34:53;;;;;;;54.55;39.70;;;28.30;78.00;;;;;;1828655;76;21851;-78
2023/02/13 02:37:38;;;;;;;51.42;39.05;;;28.30;77.70;;;;;;1805575;77;21190;-80
2023/02/13 02:40:24;;;;;;;53.30;39.98;;;28.40;78.10;;;;;;1846112;77;21284;-80
2023/02/13 02:43:03;;;;;;;48.48;40.45;;;28.60;78.20;;;;;;1834400;76;21202;-83
2023/02/13 02:45:42;;;;;;;50.95;41.00;;;28.60;77.70;;;;;;1794965;76;21305;-81
2023/02/13 02:51:22;;;;;;;;;;;28.70;77.50;;;;;;1844094;76;21868;-78
2023/02/13 02:53:56;;;;;;;54.20;38.28;;;28.80;77.70;;;;;;1837271;77;20165;-82
2023/02/13 02:56:32;;;;;;;53.30;38.67;;;28.90;77.00;;;;;;1823600;76;21244;-82
2023/02/13 03:07:44;;;;;;;39.18;31.37;;;29.20;75.00;;;;;;1783594;80;21119;-77
2023/02/13 03:13:25;;;;;;;40.70;32.23;;;29.50;73.50;;;;;;1847093;75;21216;-76
2023/02/13 03:25:10;;;;;;;36.53;29.57;;;30.00;71.30;;;;;;1822489;76;21672;-79
2023/02/13 03:31:23;;;;;;;34.98;30.62;;;30.30;70.60;;;;;;1769688;78;21210;-78
2023/02/13 03:34:02;;;;;;;38.48;28.87;;;30.40;70.10;;;;;;1771430;79;21187;-80
2023/02/13 03:39:50;;;;;;;31.30;27.25;;;30.70;68.50;;;;;;1842566;76;21228;-77
2023/02/13 03:42:35;;;;;;;34.48;29.00;;;30.80;67.20;;;;;;1833898;76;21173;-79
2023/02/13 03:51:10;;;;;;;36.08;28.77;;;31.20;67.00;;;;;;1846829;76;21248;-79
2023/02/13 03:53:43;;;;;;;33.33;27.35;;;31.30;66.20;;;;;;1840928;76;21234;-77
2023/02/13 03:59:17;;;;;;;36.85;28.52;;;31.40;65.10;;;;;;1828998;76;21215;-80
2023/02/13 04:01:50;;;;;;;33.38;28.38;;;31.60;65.00;;;;;;1830380;76;21497;-78
2023/02/13 04:04:27;;;;;;;34.50;28.17;;;31.60;64.40;;;;;;1838793;76;21121;-78
2023/02/13 04:07:00;;;;;;;35.50;26.57;;;31.70;64.80;;;;;;1839013;76;21165;-79
2023/02/13 04:09:33;;;;;;;33.48;26.80;;;31.90;63.80;;;;;;1838671;76;21802;-77
2023/02/13 04:12:27;;;;;;;32.30;26.90;;;32.10;62.90;;;;;;1834920;76;21470;-79
2023/02/13 04:15:13;;;;;;;33.02;28.62;;;32.20;62.50;;;;;;1839404;76;21143;-77
2023/02/13 04:17:52;;;;;;;34.90;28.47;;;32.30;62.10;;;;;;1839476;76;21129;-80
2023/02/13 04:20:24;;;;;;;33.73;26.75;;;32.40;62.00;;;;;;1841313;76;21100;-79
2023/02/13 04:22:55;;;;;;;31.37;26.62;;;32.60;61.10;;;;;;1836571;76;21141;-82
2023/02/13 04:25:26;;;;;;;31.55;25.60;;;32.60;60.40;;;;;;1841833;76;21411;-77
2023/02/13 04:27:58;;;;;;;30.57;25.62;;;32.70;59.90;;;;;;1825929;76;21216;-81
2023/02/13 04:30:29;;;;;;;27.70;24.75;;;32.80;59.80;;;;;;1837906;76;21106;-81
2023/02/13 04:33:00;;;;;;;33.25;25.00;;;32.90;58.90;;;;;;1841861;76;21558;-80
2023/02/13 04:35:31;;;;;;;29.87;24.75;;;32.90;58.70;;;;;;1841767;76;21098;-81
2023/02/13 04:38:03;;;;;;;27.10;23.32;;;33.00;58.40;;;;;;1837599;76;21177;-77
2023/02/13 04:40:34;;;;;;;30.65;24.00;;;33.10;56.90;;;;;;1841963;77;21134;-82
2023/02/13 04:43:05;;;;;;;28.45;22.22;;;33.20;56.90;;;;;;1841301;77;21146;-80
2023/02/13 04:45:36;;;;;;;26.17;22.73;;;33.30;56.10;;;;;;1818200;76;21826;-78
2023/02/13 04:48:07;;;;;;;26.42;21.93;;;33.40;55.00;;;;;;1807339;78;21204;-80
2023/02/13 04:50:38;;;;;;;30.70;22.67;;;33.50;54.90;;;;;;1841521;77;21134;-77
2023/02/13 04:53:10;;;;;;;27.95;22.20;;;33.60;54.30;;;;;;1840235;77;21614;-81
2023/02/13 04:55:41;;;;;;;25.35;22.42;;;33.60;55.50;;;;;;1840689;77;21138;-77
2023/02/13 04:58:12;;;;;;;26.57;23.12;;;33.70;55.50;;;;;;1820708;76;21123;-78
2023/02/13 05:00:44;;;;;;;24.82;22.22;;;33.70;54.40;;;;;;1819803;76;21150;-79
2023/02/13 05:03:15;;;;;;;27.32;22.70;;;33.70;55.60;;;;;;1821653;76;21124;-76
2023/02/13 05:05:48;;;;;;;29.50;23.05;;;33.70;54.80;;;;;;1824633;77;21865;-79
2023/02/13 05:08:20;;;;;;;25.17;22.30;;;33.70;54.70;;;;;;1823957;76;21265;-77
2023/02/13 05:10:51;;;;;;;22.25;19.98;;;33.80;54.20;;;;;;1824820;76;21212;-78
2023/02/13 05:13:22;;;;;;;28.40;21.40;;;33.90;52.30;;;;;;1832464;76;21153;-83
2023/02/13 05:15:53;;;;;;;26.30;22.75;;;34.00;52.80;;;;;;1860735;75;21213;-81
2023/02/13 05:18:27;;;;;;;24.43;21.82;;;34.10;53.50;;;;;;1885653;74;21233;-80
2023/02/13 05:23:47;;;;;;;25.70;20.88;;;34.30;49.50;;;;;;1808579;77;21136;-82
2023/02/13 05:26:18;;;;;;;23.42;20.25;;;34.30;50.60;;;;;;1804852;77;21467;-85
2023/02/13 05:31:38;;;;;;;23.75;20.05;;;34.40;48.80;;;;;;1862344;75;21115;-78
2023/02/13 05:34:17;;;;;;;22.95;19.85;;;34.50;49.50;;;;;;1834623;76;21169;-76
2023/02/13 05:36:49;;;;;;;22.55;20.15;;;34.40;49.40;;;;;;1805333;79;21168;-80
2023/02/13 05:39:21;;;;;;;22.85;19.73;;;34.50;49.20;;;;;;1868790;75;21418;-77
2023/02/13 05:41:53;;;;;;;24.77;19.50;;;34.50;48.90;;;;;;1830143;76;21207;-82
2023/02/13 05:44:24;;;;;;;33.98;20.92;;;34.60;48.20;;;;;;1803676;78;21194;-78
2023/02/13 05:46:56;;;;;;;22.25;19.82;;;34.60;49.40;;;;;;1800039;77;21171;-80
2023/02/13 05:49:27;;;;;;;22.65;18.65;;;34.60;49.10;;;;;;1825565;76;21222;-81
2023/02/13 05:51:58;;;;;;;24.45;18.85;;;34.60;48.70;;;;;;1812531;76;21427;-80
2023/02/13 05:54:29;;;;;;;20.95;18.65;;;34.70;48.80;;;;;;1841034;76;21155;-82
2023/02/13 05:57:01;;;;;;;21.15;18.95;;;34.70;48.30;;;;;;1827151;76;21187;-77
2023/02/13 05:59:32;;;;;;;23.20;18.70;;;34.70;48.40;;;;;;1869875;76;21103;-79
2023/02/13 06:02:03;;;;;;;24.95;19.17;;;34.70;49.20;;;;;;1874219;74;21839;-80
2023/02/13 06:04:38;;;;;;;28.07;18.90;;;34.80;48.90;;;;;;1853316;75;21197;-79
2023/02/13 06:07:08;;;;;;;20.80;18.60;;;34.80;48.40;;;;;;1875267;74;21161;-82
2023/02/13 06:09:39;;;;;;;20.75;17.50;;;34.80;48.70;;;;;;1845142;75;21216;-77
2023/02/13 06:12:11;;;;;;;21.37;18.87;;;34.80;49.80;;;;;;1869956;76;21155;-80
2023/02/13 06:14:43;;;;;;;20.95;18.62;;;34.90;48.40;;;;;;1870314;75;21139;-80
2023/02/13 06:17:14;;;;;;;20.85;18.10;;;34.80;48.00;;;;;;1884571;74;21978;-81
2023/02/13 06:19:45;;;;;;;24.25;18.23;;;34.60;49.10;;;;;;1875485;75;21152;-80
2023/02/13 06:22:17;;;;;;;21.45;19.07;;;34.50;49.80;;;;;;1882343;74;21204;-81
2023/02/13 06:24:51;;;;;;;20.82;18.57;;;34.30;49.90;;;;;;1872315;75;21506;-80
2023/02/13 06:27:25;;;;;;;21.80;19.42;;;34.20;49.20;;;;;;1880361;74;21398;-79
2023/02/13 06:29:57;;;;;;;20.08;17.98;;;34.00;49.70;;;;;;1876475;75;21096;-79
2023/02/13 06:32:28;;;;;;;67.95;23.07;;;34.00;50.20;;;;;;1881271;74;21188;-80
2023/02/13 06:35:04;;;;;;;24.25;19.20;;;34.00;50.50;;;;;;1874575;75;21193;-80
2023/02/13 06:37:34;;;;;;;22.67;18.82;;;34.20;50.80;;;;;;1862366;75;21111;-79
2023/02/13 06:40:06;;;;;;;25.08;18.92;;;34.30;49.90;;;;;;1868782;74;21142;-79
2023/02/13 06:42:38;;;;;;;25.50;19.77;;;34.40;49.50;;;;;;1872555;75;21143;-79
2023/02/13 06:45:09;;;;;;;26.12;19.12;;;34.50;49.60;;;;;;1883648;74;21161;-81
2023/02/13 06:47:49;;;;;;;25.37;21.05;;;34.50;49.00;;;;;;1864930;75;21914;-79
2023/02/13 06:50:20;;;;;;;25.40;19.37;;;34.50;49.20;;;;;;1800753;78;21120;-79
2023/02/13 06:52:52;;;;;;;22.42;19.05;;;34.60;49.40;;;;;;1874025;75;21127;-80
2023/02/13 06:55:22;;;;;;;23.10;19.75;;;34.60;49.60;;;;;;1886541;74;21103;-79
2023/02/13 06:57:53;;;;;;;28.25;19.75;;;34.60;49.30;;;;;;1879082;74;21235;-80
2023/02/13 07:00:25;;;;;;;22.82;18.87;;;34.70;50.20;;;;;;1825957;76;21142;-79
2023/02/13 07:03:04;;;;;;;29.00;19.45;;;34.80;48.50;;;;;;1855283;76;21129;-81
2023/02/13 07:05:35;;;;;;;22.52;18.55;;;34.80;48.60;;;;;;1869865;75;21892;-79
2023/02/13 07:08:07;;;;;;;23.47;19.15;;;34.90;48.50;;;;;;1870117;75;21155;-84
2023/02/13 07:10:44;;;;;;;26.07;19.25;;;34.90;48.30;;;;;;1861796;76;21143;-80
2023/02/13 07:13:15;;;;;;;22.58;18.92;;;34.90;48.50;;;;;;1860362;75;21196;-82
2023/02/13 07:15:47;;;;;;;24.63;19.37;;;34.90;48.40;;;;;;1857835;75;21100;-78
2023/02/13 07:18:17;;;;;;;27.30;19.25;;;34.90;47.20;;;;;;1853416;75;21208;-76
2023/02/13 07:20:48;;;;;;;25.85;18.05;;;35.00;48.20;;;;;;1873703;75;21204;-79
2023/02/13 07:23:55;;;;;;;23.20;18.60;;;35.10;47.70;;;;;;1865663;76;21127;-85
2023/02/13 07:26:28;;;;;;;22.52;18.80;;;35.00;48.00;;;;;;1835759;77;21243;-82
2023/02/13 07:29:04;;;;;;;22.22;18.45;;;35.10;46.90;;;;;;1841615;77;21151;-81
2023/02/13 07:31:37;;;;;;;23.60;18.85;;;35.10;46.20;;;;;;1842483;77;21200;-84
2023/02/13 07:34:09;;;;;;;23.90;18.65;;;35.00;46.60;;;;;;1847426;78;21249;-86
2023/02/13 07:36:39;;;;;;;20.72;18.27;;;35.00;47.40;;;;;;1846673;78;21435;-84
2023/02/13 07:39:11;;;;;;;20.88;18.52;;;35.10;45.90;;;;;;1848803;77;21095;-86
2023/02/13 07:41:43;;;;;;;22.07;19.75;;;35.10;46.40;;;;;;1841316;78;22297;-85
2023/02/13 07:44:16;;;;;;;20.20;18.07;;;35.10;47.10;;;;;;1845755;76;21547;-86
2023/02/13 07:46:46;;;;;;;20.10;18.07;;;35.10;46.60;;;;;;1844030;76;21281;-86
2023/02/13 07:49:26;;;;;;;25.02;20.15;;;35.10;46.70;;;;;;1842059;76;21201;-86
2023/02/13 07:52:00;;;;;;;24.20;20.23;;;35.20;46.60;;;;;;1835091;78;21155;-88
2023/02/13 07:54:31;;;;;;;31.33;19.57;;;35.20;47.00;;;;;;1833325;78;21599;-87
2023/02/13 07:57:10;;;;;;;21.37;19.12;;;35.20;47.30;;;;;;1835057;78;21493;-88
2023/02/13 08:00:20;;;;;;;20.72;17.75;;;35.20;47.30;;;;;;1842849;77;21693;-86
2023/02/13 08:02:51;;;;;;;21.73;18.27;;;35.20;47.10;;;;;;1843195;77;21150;-86
2023/02/13 08:05:24;;;;;;;20.55;18.35;;;35.10;47.10;;;;;;1842210;78;21744;-86
2023/02/13 08:07:55;;;;;;;21.82;18.12;;;35.10;47.90;;;;;;1848454;77;21169;-87
2023/02/13 08:13:17;;;;;;;21.45;18.50;;;35.00;47.70;;;;;;1848152;78;21104;-85
2023/02/13 08:15:49;;;;;;;19.50;17.55;;;35.10;48.20;;;;;;1838817;78;21567;-87
2023/02/13 08:18:21;;;;;;;26.93;17.82;;;35.00;48.40;;;;;;1848223;77;21100;-84
2023/02/13 08:20:53;;;;;;;20.43;17.73;;;35.00;48.10;;;;;;1839744;77;21118;-86
2023/02/13 08:23:23;;;;;;;20.17;17.90;;;35.00;48.10;;;;;;1843522;78;21131;-86
2023/02/13 08:25:55;;;;;;;20.70;17.32;;;34.90;48.60;;;;;;1824425;77;21174;-86
2023/02/13 08:28:31;;;;;;;20.10;17.52;;;34.90;49.00;;;;;;1809224;79;21477;-87
2023/02/13 08:31:02;;;;;;;21.85;18.02;;;34.90;48.40;;;;;;1812833;78;21163;-85
2023/02/13 08:33:33;;;;;;;20.23;17.30;;;34.90;48.80;;;;;;1809294;79;21091;-87
2023/02/13 08:36:08;;;;;;;18.82;16.42;;;34.80;49.70;;;;;;1807653;79;21130;-86
2023/02/13 08:38:39;;;;;;;19.23;15.68;;;34.80;48.80;;;;;;1808535;79;21874;-88
2023/02/13 08:41:24;;;;;;;21.45;16.82;;;34.80;49.00;;;;;;1805073;78;21159;-88
2023/02/13 08:43:53;;;;;;;18.48;15.13;;;34.80;48.70;;;;;;1808464;77;21229;-88
2023/02/13 08:46:36;;;;;;;16.00;14.30;;;34.80;49.00;;;;;;1787734;78;21174;-87
2023/02/13 08:49:08;;;;;;;20.50;15.00;;;34.90;48.80;;;;;;1809055;78;21143;-87
2023/02/13 08:51:43;;;;;;;17.85;15.18;;;34.90;49.00;;;;;;1810320;78;21187;-87
2023/02/13 08:54:27;;;;;;;17.90;14.03;;;34.80;49.40;;;;;;1807879;79;21131;-87
2023/02/13 08:57:09;;;;;;;19.50;13.88;;;34.80;49.00;;;;;;1809275;78;21197;-86
2023/02/13 08:59:49;;;;;;;15.98;13.43;;;34.80;48.70;;;;;;1808364;79;21157;-87
2023/02/13 09:02:39;;;;;;;18.62;14.75;;;34.80;48.80;;;;;;1799724;78;21087;-89
2023/02/13 09:05:13;;;;;;;16.45;13.48;;;34.80;49.10;;;;;;1795974;78;21691;-88
2023/02/13 09:11:13;;;;;;;13.22;11.20;;;34.80;47.80;;;;;;1797299;79;21123;-88
2023/02/13 09:17:03;;;;;;;13.20;11.78;;;34.80;48.00;;;;;;1808916;78;21440;-87
2023/02/13 09:19:34;;;;;;;13.05;11.18;;;34.70;48.50;;;;;;1806735;78;21261;-87
2023/02/13 09:22:04;;;;;;;12.75;10.53;;;34.70;48.10;;;;;;1811630;78;21131;-86
2023/02/13 09:25:02;;;;;;;13.35;9.83;;;34.70;48.60;;;;;;1808687;78;21144;-85
2023/02/13 09:30:35;;;;;;;18.57;10.35;;;34.70;47.40;;;;;;1779123;79;21638;-86
2023/02/13 09:33:09;;;;;;;12.58;10.03;;;34.70;47.00;;;;;;1791995;79;21147;-87
2023/02/13 09:35:46;;;;;;;14.80;10.32;;;34.70;47.10;;;;;;1789649;80;21159;-87
2023/02/13 09:38:16;;;;;;;13.13;10.53;;;34.70;46.80;;;;;;1795992;80;21163;-86
2023/02/13 09:40:50;;;;;;;13.53;10.32;;;34.70;47.20;;;;;;1784456;80;21726;-88
2023/02/13 09:43:40;;;;;;;13.03;9.83;;;34.60;47.50;;;;;;1782042;77;21225;-86
2023/02/13 09:46:22;;;;;;;11.93;9.78;;;34.70;46.80;;;;;;1791600;79;21175;-88
2023/02/13 09:52:22;;;;;;;11.90;9.75;;;34.60;46.80;;;;;;1785726;79;21147;-86
2023/02/13 09:54:53;;;;;;;11.60;10.35;;;34.60;47.40;;;;;;1794421;80;21637;-86
2023/02/13 10:00:43;;;;;;;12.30;9.53;;;34.50;46.60;;;;;;1744462;78;21143;-88
2023/02/13 10:03:27;;;;;;;13.30;9.58;;;34.50;46.10;;;;;;1798033;79;21148;-87
2023/02/13 10:06:19;;;;;;;16.55;10.25;;;34.50;46.20;;;;;;1796926;80;21231;-87
2023/02/13 10:09:07;;;;;;;13.48;9.50;;;34.40;45.90;;;;;;1798271;80;21151;-87
2023/02/13 10:11:53;;;;;;;15.55;9.98;;;34.40;46.60;;;;;;1794490;79;21143;-86
2023/02/13 10:14:29;;;;;;;15.37;10.57;;;34.30;46.70;;;;;;1797172;78;21139;-86
2023/02/13 10:17:10;;;;;;;14.75;10.55;;;34.20;46.40;;;;;;1796995;79;21179;-86
2023/02/13 10:20:00;;;;;;;16.35;10.08;;;34.20;46.70;;;;;;1798665;79;21587;-86
2023/02/13 10:22:40;;;;;;;15.75;9.50;;;34.20;46.50;;;;;;1800186;79;21131;-87
2023/02/13 10:25:19;;;;;;;21.33;10.53;;;34.20;46.40;;;;;;1791835;79;21216;-86
2023/02/13 10:28:04;;;;;;;15.65;10.10;;;34.10;46.60;;;;;;1831872;78;21143;-87
2023/02/13 10:30:39;;;;;;;14.03;9.35;;;34.10;47.20;;;;;;1832700;78;21207;-88
2023/02/13 10:33:30;;;;;;;12.23;9.05;;;34.00;46.70;;;;;;1829390;78;21163;-88
2023/02/13 10:36:14;;;;;;;18.77;10.48;;;34.00;46.20;;;;;;1832645;77;21151;-87
2023/02/13 10:42:45;;;;;;;14.33;9.23;;;33.90;46.50;;;;;;1832846;77;21131;-89
2023/02/13 10:45:36;;;;;;;14.25;9.58;;;33.90;46.90;;;;;;1813173;78;21398;-87
2023/02/13 10:48:27;;;;;;;12.05;9.75;;;33.80;48.40;;;;;;1833081;78;21143;-86
2023/02/13 10:51:10;;;;;;;15.80;10.10;;;33.80;48.10;;;;;;1812284;78;21202;-87
2023/02/13 10:53:52;;;;;;;16.90;9.93;;;33.80;48.00;;;;;;1829706;78;22019;-87
2023/02/13 10:56:47;;;;;;;20.08;10.20;;;33.70;48.20;;;;;;1830952;78;21183;-88
2023/02/13 10:59:40;;;;;;;28.45;11.68;;;33.70;48.50;;;;;;1775116;79;21277;-87
2023/02/13 11:02:13;;;;;;;18.35;11.43;;;33.60;47.70;;;;;;1761588;79;21235;-88
2023/02/13 11:04:47;;;;;;;14.47;10.78;;;33.60;48.10;;;;;;1810335;78;21167;-87
2023/02/13 11:07:20;;;;;;;20.00;11.45;;;33.50;48.00;;;;;;1830571;78;21409;-86
2023/02/13 11:09:54;;;;;;;20.62;11.95;;;33.50;47.80;;;;;;1833948;77;21131;-87
2023/02/13 11:12:30;;;;;;;17.67;14.68;;;33.50;48.70;;;;;;1834048;78;21221;-88
2023/02/13 11:15:04;;;;;;;20.48;15.35;;;33.50;50.80;;;;;;1794352;78;21179;-88
2023/02/13 11:17:39;;;;;;;20.83;17.27;;;33.40;51.50;;;;;;1832260;78;21144;-87
2023/02/13 11:20:24;;;;;;;21.55;17.48;;;33.40;52.60;;;;;;1831802;77;21407;-85
2023/02/13 11:22:56;;;;;;;23.40;18.20;;;33.30;53.20;;;;;;1832952;78;21626;-86
2023/02/13 11:25:30;;;;;;;24.82;17.30;;;33.20;53.40;;;;;;1832396;78;21401;-86
2023/02/13 11:28:12;;;;;;;21.95;17.02;;;33.20;53.70;;;;;;1831433;77;21152;-86
2023/02/13 11:30:43;;;;;;;23.35;17.32;;;33.10;54.10;;;;;;1831771;78;21218;-88
2023/02/13 11:33:22;;;;;;;24.00;17.70;;;33.10;54.50;;;;;;1833456;78;21232;-86
2023/02/13 11:39:25;;;;;;;26.60;17.80;;;32.90;54.40;;;;;;1824190;78;21234;-85
2023/02/13 11:42:03;;;;;;;23.45;16.05;;;32.90;54.60;;;;;;1837343;78;21254;-86
2023/02/13 11:44:33;;;;;;;23.32;16.57;;;32.90;54.60;;;;;;1834105;78;21239;-86
2023/02/13 11:47:05;;;;;;;26.62;17.73;;;32.80;54.60;;;;;;1832058;78;21214;-87
2023/02/13 11:49:38;;;;;;;23.32;17.82;;;32.80;54.80;;;;;;1831873;77;21155;-87
2023/02/13 11:52:26;;;;;;;25.45;17.48;;;32.70;54.80;;;;;;1831504;78;21143;-87
2023/02/13 11:55:02;;;;;;;26.07;17.37;;;32.70;55.00;;;;;;1830368;77;21187;-86
2023/02/13 11:57:35;;;;;;;27.22;19.55;;;32.60;55.20;;;;;;1820631;78;21159;-86
2023/02/13 12:00:38;;;;;;;27.40;19.37;;;32.60;55.40;;;;;;1831444;77;21154;-88
2023/02/13 12:03:27;;;;;;;27.20;19.20;;;32.50;55.40;;;;;;1832523;78;21201;-88
2023/02/13 12:06:12;;;;;;;25.15;18.07;;;32.50;55.40;;;;;;1831235;78;21112;-87
2023/02/13 12:08:46;;;;;;;24.47;17.82;;;32.50;55.40;;;;;;1832825;78;21163;-87
2023/02/13 12:11:24;;;;;;;22.62;18.00;;;32.50;55.50;;;;;;1832598;78;21410;-87
2023/02/13 12:13:55;;;;;;;23.40;18.00;;;32.50;55.60;;;;;;1833428;78;21151;-87
2023/02/13 12:16:39;;;;;;;26.02;20.15;;;32.50;55.70;;;;;;1832804;78;21151;-86
2023/02/13 12:19:15;;;;;;;31.70;23.15;;;32.40;55.80;;;;;;1832615;78;21755;-86
2023/02/13 12:22:07;;;;;;;28.45;19.10;;;32.40;56.10;;;;;;1829192;78;21822;-88
2023/02/13 12:24:55;;;;;;;26.82;19.77;;;32.40;56.70;;;;;;1831831;78;21120;-87
2023/02/13 12:27:49;;;;;;;27.10;20.62;;;32.30;57.20;;;;;;1820122;78;21159;-86
2023/02/13 12:30:34;;;;;;;32.93;22.15;;;32.30;57.80;;;;;;1806486;79;21883;-87
2023/02/13 12:33:40;;;;;;;30.92;23.42;;;32.30;58.50;;;;;;1810907;78;22080;-86
2023/02/13 12:36:31;;;;;;;33.92;23.70;;;32.30;59.00;;;;;;1812065;78;21198;-87
2023/02/13 12:39:04;;;;;;;40.08;26.87;;;32.20;59.20;;;;;;1837119;77;21123;-86
2023/02/13 12:41:47;;;;;;;35.30;27.62;;;32.20;59.60;;;;;;1836464;77;21224;-86
2023/02/13 12:44:38;;;;;;;36.20;25.32;;;32.10;60.00;;;;;;1824813;77;21141;-87
2023/02/13 12:47:17;;;;;;;38.33;26.00;;;32.10;60.50;;;;;;1811465;79;21889;-86
2023/02/13 12:50:08;;;;;;;34.43;24.50;;;32.00;61.30;;;;;;1799716;79;21155;-86
2023/02/13 12:53:08;;;;;;;38.23;27.75;;;31.90;61.60;;;;;;1813983;78;21146;-86
2023/02/13 12:59:52;;;;;;;35.03;27.20;;;31.90;62.80;;;;;;1812237;79;21119;-86
2023/02/13 13:02:32;;;;;;;39.58;27.42;;;31.80;63.10;;;;;;1809340;78;21151;-87
2023/02/13 13:05:10;;;;;;;33.15;27.87;;;31.80;63.20;;;;;;1811942;78;21150;-87
2023/02/13 13:07:59;;;;;;;34.78;29.10;;;31.70;63.30;;;;;;1818222;77;21293;-87
2023/02/13 13:14:33;;;;;;;35.80;29.02;;;31.70;63.80;;;;;;1805367;79;21114;-87
2023/02/13 13:17:22;;;;;;;40.78;28.62;;;31.70;64.00;;;;;;1743766;80;21392;-87
2023/02/13 13:20:29;;;;;;;34.60;25.88;;;31.70;64.30;;;;;;1745970;81;21153;-87
2023/02/13 13:23:26;;;;;;;34.88;27.25;;;31.60;63.40;;;;;;1708486;83;21605;-87
2023/02/13 13:26:01;;;;;;;36.03;28.77;;;31.60;63.90;;;;;;1786643;79;21186;-86
2023/02/13 13:28:41;;;;;;;35.28;28.30;;;31.60;64.60;;;;;;1827603;78;21910;-88
2023/02/13 13:31:13;;;;;;;39.00;30.52;;;31.60;64.60;;;;;;1831285;78;21159;-88
2023/02/13 13:33:48;;;;;;;38.83;31.25;;;31.60;65.60;;;;;;1831670;77;21198;-87
2023/02/13 13:36:33;;;;;;;36.28;27.85;;;31.50;65.20;;;;;;1830457;78;21167;-87
2023/02/13 13:39:16;;;;;;;38.65;29.50;;;31.50;66.10;;;;;;1830302;78;21744;-86
2023/02/13 13:41:55;;;;;;;33.23;27.65;;;31.50;65.70;;;;;;1830389;78;21090;-87
2023/02/13 13:44:52;;;;;;;35.28;27.75;;;31.50;65.60;;;;;;1824034;78;21147;-89
2023/02/13 13:47:25;;;;;;;33.65;26.57;;;31.40;65.70;;;;;;1832656;78;21155;-86
2023/02/13 13:49:58;;;;;;;41.02;28.40;;;31.40;66.20;;;;;;1832701;78;21186;-87
2023/02/13 13:52:31;;;;;;;32.23;28.02;;;31.40;66.80;;;;;;1809704;78;21148;-87
2023/02/13 13:55:03;;;;;;;41.13;28.75;;;31.40;67.10;;;;;;1820698;78;21147;-86
2023/02/13 13:58:00;;;;;;;66.97;29.37;;;31.40;67.90;;;;;;1832868;78;21943;-86
2023/02/13 14:00:32;;;;;;;38.08;29.70;;;31.40;68.10;;;;;;1832211;78;21654;-86
2023/02/13 14:03:26;;;;;;;41.60;30.12;;;31.30;68.20;;;;;;1827057;77;21215;-87
2023/02/13 14:06:03;;;;;;;42.08;30.90;;;31.20;68.20;;;;;;1820565;78;21147;-87
2023/02/13 14:08:47;;;;;;;33.02;28.27;;;31.30;68.20;;;;;;1833010;78;21151;-87
2023/02/13 14:11:32;;;;;;;39.53;29.87;;;31.20;67.90;;;;;;1833064;78;21228;-87
2023/02/13 14:14:04;;;;;;;40.73;31.68;;;31.20;68.10;;;;;;1833583;78;21110;-85
2023/02/13 14:16:46;;;;;;;38.23;30.48;;;31.20;68.40;;;;;;1830445;78;21496;-86
2023/02/13 14:19:40;;;;;;;41.15;31.75;;;31.20;68.60;;;;;;1819531;78;21108;-87
2023/02/13 14:22:35;;;;;;;37.63;31.62;;;31.20;68.70;;;;;;1833679;78;22056;-86
2023/02/13 14:25:07;;;;;;;45.38;33.08;;;31.10;68.80;;;;;;1799186;78;21455;-86
2023/02/13 14:27:40;;;;;;;82.12;35.85;;;31.10;69.00;;;;;;1832176;77;21186;-87
2023/02/13 14:36:46;;;;;;;42.20;32.28;;;31.10;69.00;;;;;;1843624;77;21186;-87
2023/02/13 14:39:32;;;;;;;39.48;32.15;;;31.10;69.30;;;;;;1840974;75;21409;-87
2023/02/13 14:42:05;;;;;;;41.63;33.05;;;31.00;69.80;;;;;;1839350;77;21223;-86
2023/02/13 14:44:47;;;;;;;41.15;32.78;;;31.00;70.00;;;;;;1844187;77;21217;-87
2023/02/13 14:47:27;;;;;;;40.95;30.82;;;31.00;70.30;;;;;;1845100;77;21692;-86
2023/02/13 14:49:59;;;;;;;43.70;32.05;;;31.00;69.70;;;;;;1844579;77;21835;-86
2023/02/13 14:52:33;;;;;;;43.95;32.98;;;31.00;70.20;;;;;;1843320;77;21111;-86
2023/02/13 14:55:06;;;;;;;44.67;34.50;;;31.00;70.40;;;;;;1831691;77;21128;-86
2023/02/13 14:57:41;;;;;;;42.35;34.35;;;30.90;70.70;;;;;;1832056;77;21264;-86
2023/02/13 15:00:15;;;;;;;45.38;33.30;;;30.90;70.80;;;;;;1839797;78;21251;-86